createdAt,value
2022-11-13T00:01:23.831Z,18.10
2022-11-13T00:04:10.786Z,19.88
2022-11-13T00:06:59.631Z,20.20
2022-11-13T00:09:45.056Z,16.10
2022-11-13T00:12:30.799Z,18.38
2022-11-13T00:15:16.367Z,14.95
2022-11-13T00:18:03.210Z,15.00
2022-11-13T00:20:48.834Z,14.50
2022-11-13T00:23:35.499Z,14.75
2022-11-13T00:26:23.265Z,13.82
2022-11-13T00:29:09.001Z,13.13
2022-11-13T00:31:54.237Z,15.30
2022-11-13T00:34:48.148Z,14.73
2022-11-13T00:37:34.202Z,13.00
2022-11-13T00:40:20.003Z,13.15
2022-11-13T00:43:05.297Z,12.98
2022-11-13T00:45:50.737Z,12.70
2022-11-13T00:48:36.670Z,12.77
2022-11-13T00:51:22.756Z,10.60
2022-11-13T00:54:08.280Z,13.60
2022-11-13T00:56:53.557Z,11.60
2022-11-13T00:59:39.105Z,12.48
2022-11-13T01:02:24.475Z,13.60
2022-11-13T01:05:10.094Z,14.35
2022-11-13T01:07:55.438Z,12.63
2022-11-13T01:10:53.121Z,12.77
2022-11-13T01:13:43.627Z,13.38
2022-11-13T01:16:29.340Z,11.65
2022-11-13T01:19:14.965Z,13.27
2022-11-13T01:22:00.413Z,11.63
2022-11-13T01:24:45.712Z,14.85
2022-11-13T01:27:31.412Z,12.93
2022-11-13T01:30:17.493Z,11.95
2022-11-13T01:33:02.907Z,15.45
2022-11-13T01:35:48.521Z,11.68
2022-11-13T01:38:37.062Z,12.52
2022-11-13T01:41:25.828Z,12.95
2022-11-13T01:44:14.341Z,11.85
2022-11-13T01:46:59.780Z,12.60
2022-11-13T01:49:46.693Z,15.15
2022-11-13T01:52:39.035Z,12.23
2022-11-13T01:55:24.858Z,15.63
2022-11-13T01:58:11.784Z,17.30
2022-11-13T02:00:57.272Z,18.45
2022-11-13T02:03:42.681Z,20.50
2022-11-13T02:06:43.929Z,22.70
2022-11-13T02:09:33.913Z,22.98
2022-11-13T02:12:25.397Z,21.48
2022-11-13T02:15:10.879Z,23.23
2022-11-13T02:18:00.078Z,22.38
2022-11-13T02:20:54.093Z,25.85
2022-11-13T02:23:49.145Z,26.38
2022-11-13T02:26:36.884Z,23.50
2022-11-13T02:29:22.441Z,23.48
2022-11-13T02:32:07.566Z,26.23
2022-11-13T02:34:52.943Z,29.55
2022-11-13T02:37:38.240Z,30.90
2022-11-13T02:40:24.946Z,27.17
2022-11-13T02:43:10.232Z,28.00
2022-11-13T02:45:55.661Z,28.85
2022-11-13T02:48:40.954Z,29.73
2022-11-13T02:51:26.779Z,29.25
2022-11-13T02:54:16.693Z,30.42
2022-11-13T02:57:02.582Z,33.35
2022-11-13T02:59:47.978Z,28.95
2022-11-13T03:02:33.370Z,33.20
2022-11-13T03:05:18.859Z,34.08
2022-11-13T03:25:34.729Z,34.58
2022-11-13T03:28:20.263Z,42.05
2022-11-13T03:31:06.097Z,41.90
2022-11-13T03:33:53.799Z,38.10
2022-11-13T03:36:39.105Z,40.00
2022-11-13T03:39:24.123Z,43.65
2022-11-13T03:42:09.371Z,45.05
2022-11-13T03:44:55.331Z,42.17
2022-11-13T03:47:40.415Z,47.05
2022-11-13T03:50:26.175Z,42.92
2022-11-13T03:53:12.118Z,50.90
2022-11-13T03:55:58.090Z,46.55
2022-11-13T03:58:48.449Z,42.25
2022-11-13T04:01:35.063Z,40.25
2022-11-13T04:04:20.858Z,42.28
2022-11-13T04:07:06.052Z,40.85
2022-11-13T04:09:51.381Z,42.35
2022-11-13T04:12:36.749Z,45.60
2022-11-13T04:15:22.222Z,48.72
2022-11-13T04:18:07.378Z,42.80
2022-11-13T04:20:52.858Z,46.97
2022-11-13T04:23:38.203Z,50.35
2022-11-13T04:26:23.657Z,51.13
2022-11-13T04:29:08.966Z,45.90
2022-11-13T04:31:54.350Z,48.65
2022-11-13T04:34:39.911Z,41.75
2022-11-13T04:37:25.086Z,54.35
2022-11-13T04:40:11.090Z,44.97
2022-11-13T04:42:56.536Z,45.38
2022-11-13T04:45:42.154Z,43.95
2022-11-13T04:48:27.534Z,36.10
2022-11-13T04:51:13.665Z,42.25
2022-11-13T04:53:59.357Z,42.42
2022-11-13T04:56:44.767Z,45.03
2022-11-13T04:59:30.199Z,40.78
2022-11-13T05:02:15.781Z,41.58
2022-11-13T05:05:04.983Z,38.67
2022-11-13T05:07:50.665Z,41.90
2022-11-13T05:10:36.903Z,39.78
2022-11-13T05:13:22.222Z,42.50
2022-11-13T05:16:09.934Z,42.75
2022-11-13T05:18:55.216Z,39.25
2022-11-13T05:21:40.563Z,41.15
2022-11-13T05:24:26.109Z,45.25
2022-11-13T05:27:15.998Z,53.83
2022-11-13T05:30:04.190Z,57.75
2022-11-13T05:32:49.579Z,49.17
2022-11-13T05:35:34.841Z,38.33
2022-11-13T05:38:20.150Z,33.15
2022-11-13T05:41:08.570Z,24.63
2022-11-13T05:43:59.176Z,18.17
2022-11-13T05:46:45.101Z,19.00
2022-11-13T05:49:30.730Z,17.58
2022-11-13T05:52:15.796Z,16.95
2022-11-13T05:55:01.160Z,15.73
2022-11-13T05:57:46.553Z,17.55
2022-11-13T06:00:31.906Z,20.67
2022-11-13T06:03:17.033Z,19.85
2022-11-13T06:06:02.726Z,21.73
2022-11-13T06:08:49.375Z,25.23
2022-11-13T06:11:34.778Z,27.35
2022-11-13T06:14:19.825Z,26.58
2022-11-13T06:17:05.243Z,24.95
2022-11-13T06:19:50.795Z,20.10
2022-11-13T06:22:36.173Z,20.92
2022-11-13T06:25:21.670Z,14.32
2022-11-13T06:28:06.930Z,12.90
2022-11-13T06:30:52.268Z,13.18
2022-11-13T06:33:38.470Z,15.48
2022-11-13T06:36:26.087Z,13.75
2022-11-13T06:39:12.347Z,12.27
2022-11-13T06:41:57.778Z,12.25
2022-11-13T06:44:43.074Z,11.90
2022-11-13T06:47:28.805Z,11.40
2022-11-13T06:50:13.707Z,11.27
2022-11-13T06:52:59.173Z,11.75
2022-11-13T06:55:49.870Z,12.18
2022-11-13T06:58:35.786Z,12.27
2022-11-13T07:01:23.517Z,11.43
2022-11-13T07:04:12.862Z,12.02
2022-11-13T07:06:58.650Z,10.98
2022-11-13T07:09:43.991Z,9.65
2022-11-13T07:12:29.403Z,15.43
2022-11-13T07:15:16.609Z,12.25
2022-11-13T07:18:02.842Z,15.57
2022-11-13T07:20:48.898Z,11.95
2022-11-13T07:23:37.037Z,13.40
2022-11-13T07:26:22.454Z,11.38
2022-11-13T07:29:07.934Z,14.65
2022-11-13T07:31:53.713Z,15.32
2022-11-13T07:34:39.299Z,13.75
2022-11-13T07:37:24.652Z,12.73
2022-11-13T07:40:11.362Z,12.40
2022-11-13T07:43:01.307Z,12.68
2022-11-13T07:45:46.503Z,12.15
2022-11-13T07:48:32.193Z,12.57
2022-11-13T07:51:18.230Z,13.48
2022-11-13T07:54:03.605Z,12.40
2022-11-13T07:56:49.044Z,17.40
2022-11-13T07:59:34.951Z,13.82
2022-11-13T08:02:26.118Z,15.85
2022-11-13T08:05:12.132Z,16.83
2022-11-13T08:07:58.305Z,14.88
2022-11-13T08:10:43.574Z,13.98
2022-11-13T08:13:29.241Z,14.48
2022-11-13T08:16:14.602Z,12.25
2022-11-13T08:18:59.842Z,12.05
2022-11-13T08:21:45.325Z,14.07
2022-11-13T08:24:30.766Z,11.80
2022-11-13T08:27:16.221Z,13.30
2022-11-13T08:30:01.848Z,11.95
2022-11-13T08:32:48.425Z,14.40
2022-11-13T08:35:33.580Z,14.20
2022-11-13T08:38:19.022Z,15.57
2022-11-13T08:41:09.371Z,15.15
2022-11-13T08:43:55.276Z,14.45
2022-11-13T08:46:41.077Z,16.20
2022-11-13T08:49:26.373Z,11.45
2022-11-13T08:52:12.103Z,14.40
2022-11-13T08:54:57.486Z,14.00
2022-11-13T08:57:43.109Z,14.75
2022-11-13T09:00:30.854Z,15.02
2022-11-13T09:03:16.437Z,13.70
2022-11-13T09:06:06.539Z,16.40
2022-11-13T09:08:51.958Z,11.65
2022-11-13T09:11:37.792Z,14.93
2022-11-13T09:14:25.104Z,15.93
2022-11-13T09:17:11.205Z,11.15
2022-11-13T09:20:00.800Z,13.13
2022-11-13T09:22:50.456Z,14.38
2022-11-13T09:25:38.180Z,11.00
2022-11-13T09:28:23.991Z,12.88
2022-11-13T09:31:10.753Z,12.77
2022-11-13T09:33:56.638Z,13.68
2022-11-13T09:36:42.509Z,14.13
2022-11-13T09:39:28.720Z,17.23
2022-11-13T09:42:23.942Z,15.40
2022-11-13T09:45:14.365Z,18.17
2022-11-13T09:48:43.475Z,24.27
2022-11-13T09:51:32.688Z,15.60
2022-11-13T09:54:19.448Z,14.80
2022-11-13T09:57:28.459Z,14.18
2022-11-13T10:00:22.388Z,14.25
2022-11-13T10:03:07.783Z,13.70
2022-11-13T10:06:21.222Z,17.15
2022-11-13T10:09:38.126Z,16.13
2022-11-13T10:12:27.468Z,12.20
2022-11-13T10:15:13.569Z,16.38
2022-11-13T10:18:08.351Z,13.73
2022-11-13T10:20:58.140Z,15.23
2022-11-13T10:23:47.958Z,9.55
2022-11-13T10:26:33.915Z,9.00
2022-11-13T10:29:20.885Z,8.20
2022-11-13T10:32:35.685Z,12.32
2022-11-13T10:35:40.010Z,14.77
2022-11-13T10:41:17.681Z,10.80
2022-11-13T10:44:18.068Z,6.47
2022-11-13T10:47:36.068Z,7.97
2022-11-13T10:50:32.335Z,6.40
2022-11-13T10:53:20.777Z,6.43
2022-11-13T10:56:33.775Z,7.93
2022-11-13T10:59:20.267Z,9.23
2022-11-13T11:02:19.818Z,6.95
2022-11-13T11:05:16.120Z,8.98
2022-11-13T11:08:01.379Z,13.32
2022-11-13T11:11:16.511Z,10.75
2022-11-13T11:14:17.343Z,14.13
2022-11-13T11:17:06.378Z,12.20
2022-11-13T11:20:33.562Z,10.45
2022-11-13T11:23:43.821Z,12.27
2022-11-13T11:26:35.148Z,13.18
2022-11-13T11:29:39.513Z,17.38
2022-11-13T11:32:32.519Z,17.67
2022-11-13T11:35:22.130Z,11.80
2022-11-13T11:38:29.662Z,15.88
2022-11-13T11:41:19.220Z,15.23
2022-11-13T11:44:18.379Z,11.52
2022-11-13T11:47:04.106Z,11.45
2022-11-13T11:49:50.050Z,14.23
2022-11-13T11:52:47.924Z,13.13
2022-11-13T11:55:54.902Z,9.57
2022-11-13T11:59:14.533Z,9.73
2022-11-13T12:02:06.307Z,10.70
2022-11-13T12:04:57.534Z,11.35
2022-11-13T12:07:49.057Z,9.77
2022-11-13T12:10:40.404Z,9.18
2022-11-13T12:13:32.694Z,9.68
2022-11-13T12:16:36.110Z,11.23
2022-11-13T12:19:24.514Z,10.10
2022-11-13T12:23:07.071Z,10.52
2022-11-13T12:26:24.403Z,9.93
2022-11-13T12:29:27.698Z,13.52
2022-11-13T12:32:15.742Z,11.52
2022-11-13T12:35:09.844Z,10.95
2022-11-13T12:37:55.810Z,9.70
2022-11-13T12:40:58.088Z,6.80
2022-11-13T12:44:02.054Z,8.70
2022-11-13T12:46:49.691Z,8.00
2022-11-13T12:49:36.689Z,11.70
2022-11-13T12:52:24.534Z,9.15
2022-11-13T12:55:32.029Z,11.52
2022-11-13T12:58:26.291Z,12.85
2022-11-13T13:01:11.791Z,9.27
2022-11-13T13:04:12.341Z,8.73
2022-11-13T13:07:23.111Z,11.90
2022-11-13T13:10:27.030Z,11.43
2022-11-13T13:13:24.007Z,7.33
2022-11-13T13:16:10.756Z,12.13
2022-11-13T13:19:28.492Z,8.60
2022-11-13T13:22:32.386Z,8.88
2022-11-13T13:25:23.854Z,10.32
2022-11-13T13:28:09.158Z,9.73
2022-11-13T13:31:19.097Z,13.40
2022-11-13T13:34:16.832Z,10.15
2022-11-13T13:37:23.481Z,7.63
2022-11-13T13:40:37.710Z,10.77
2022-11-13T13:43:44.921Z,9.98
2022-11-13T13:46:32.276Z,8.27
2022-11-13T13:49:22.045Z,8.55
2022-11-13T13:52:14.112Z,11.35
2022-11-13T13:55:02.135Z,9.48
2022-11-13T13:57:47.820Z,11.30
2022-11-13T14:00:33.914Z,9.15
2022-11-13T14:03:21.993Z,7.55
2022-11-13T14:06:20.265Z,10.75
2022-11-13T14:09:10.937Z,8.98
2022-11-13T14:12:07.890Z,11.63
2022-11-13T14:14:54.595Z,12.82
2022-11-13T14:17:40.021Z,11.20
2022-11-13T14:20:25.573Z,10.05
2022-11-13T14:23:15.366Z,10.65
2022-11-13T14:26:01.701Z,11.60
2022-11-13T14:28:58.293Z,13.52
2022-11-13T14:31:43.700Z,10.27
2022-11-13T14:34:31.063Z,9.50
2022-11-13T14:37:37.900Z,8.05
2022-11-13T14:40:32.498Z,10.13
2022-11-13T14:43:22.847Z,12.30
2022-11-13T14:46:24.473Z,11.43
2022-11-13T14:49:15.649Z,11.90
2022-11-13T14:52:01.727Z,12.18
2022-11-13T14:55:13.729Z,12.25
2022-11-13T14:57:52.792Z,12.70
2022-11-13T15:00:38.680Z,13.45
2022-11-13T15:03:25.153Z,10.00
2022-11-13T15:06:22.852Z,19.70
2022-11-13T15:09:13.589Z,13.52
2022-11-13T15:27:42.924Z,27.05
2022-11-13T15:30:29.014Z,12.70
2022-11-13T15:33:15.716Z,13.65
2022-11-13T15:36:01.683Z,14.93
2022-11-13T15:38:47.560Z,15.13
2022-11-13T15:41:34.229Z,23.70
2022-11-13T15:44:19.558Z,24.48
2022-11-13T15:47:20.185Z,19.02
2022-11-13T15:50:15.352Z,18.70
2022-11-13T15:53:05.443Z,16.45
2022-11-13T15:55:51.502Z,20.98
2022-11-13T15:58:37.172Z,22.33
2022-11-13T16:01:23.348Z,32.05
2022-11-13T16:04:09.000Z,44.15
2022-11-13T16:06:54.940Z,51.95
2022-11-13T16:09:40.413Z,39.03
2022-11-13T16:12:25.815Z,47.58
2022-11-13T16:15:14.783Z,46.53
2022-11-13T16:18:01.214Z,54.28
2022-11-13T16:20:46.289Z,49.63
2022-11-13T16:23:31.969Z,39.78
2022-11-13T16:26:26.139Z,48.15
2022-11-13T16:29:19.372Z,36.43
2022-11-13T16:32:04.630Z,32.08
2022-11-13T16:34:50.190Z,24.90
2022-11-13T16:37:36.029Z,22.52
2022-11-13T16:40:25.549Z,24.70
2022-11-13T16:43:11.461Z,28.88
2022-11-13T16:46:00.401Z,27.85
2022-11-13T16:48:46.580Z,33.92
2022-11-13T16:51:31.632Z,29.65
2022-11-13T16:54:17.040Z,30.10
2022-11-13T16:57:02.684Z,29.45
2022-11-13T16:59:47.902Z,25.65
2022-11-13T17:02:33.480Z,27.00
2022-11-13T17:05:20.291Z,27.95
2022-11-13T17:08:06.097Z,32.03
2022-11-13T17:10:58.595Z,24.67
2022-11-13T17:13:44.640Z,27.35
2022-11-13T17:16:31.827Z,30.42
2022-11-13T17:19:16.872Z,25.10
2022-11-13T17:22:02.226Z,26.42
2022-11-13T17:24:47.828Z,27.58
2022-11-13T17:27:33.061Z,28.90
2022-11-13T17:30:18.468Z,27.10
2022-11-13T17:33:03.619Z,29.83
2022-11-13T17:35:56.612Z,34.22
2022-11-13T17:38:42.074Z,30.05
2022-11-13T17:41:27.405Z,33.40
2022-11-13T17:44:12.948Z,33.10
2022-11-13T17:46:58.483Z,38.42
2022-11-13T17:49:44.101Z,42.38
2022-11-13T17:52:29.486Z,36.58
2022-11-13T17:55:14.957Z,41.30
2022-11-13T17:58:01.115Z,35.70
2022-11-13T18:00:46.550Z,44.00
2022-11-13T18:03:32.349Z,33.85
2022-11-13T18:06:20.113Z,40.45
2022-11-13T18:09:06.581Z,162.38
2022-11-13T18:11:52.614Z,67.70
2022-11-13T18:14:38.212Z,47.50
2022-11-13T18:17:24.330Z,42.40
2022-11-13T18:20:10.381Z,42.70
2022-11-13T18:22:57.013Z,54.35
2022-11-13T18:25:42.467Z,50.90
2022-11-13T18:28:27.858Z,48.47
2022-11-13T18:31:17.822Z,50.30
2022-11-13T18:34:05.666Z,51.00
2022-11-13T18:36:51.319Z,49.58
2022-11-13T18:39:37.200Z,45.17
2022-11-13T18:42:25.609Z,48.08
2022-11-13T18:45:12.034Z,47.10
2022-11-13T18:47:58.082Z,43.33
2022-11-13T18:50:55.235Z,48.42
2022-11-13T18:53:44.126Z,47.38
2022-11-13T18:56:33.890Z,45.20
2022-11-13T18:59:19.868Z,41.78
2022-11-13T19:02:05.940Z,45.55
2022-11-13T19:04:51.548Z,44.42
2022-11-13T19:07:36.975Z,39.95
2022-11-13T19:10:22.725Z,36.95
2022-11-13T19:13:11.546Z,39.22
2022-11-13T19:15:58.441Z,42.00
2022-11-13T19:18:51.285Z,36.08
2022-11-13T19:21:37.781Z,30.63
2022-11-13T19:24:26.109Z,36.58
2022-11-13T19:27:11.973Z,39.35
2022-11-13T19:29:57.782Z,42.22
2022-11-13T19:32:43.334Z,40.20
2022-11-13T19:35:28.923Z,36.95
2022-11-13T19:38:14.630Z,41.83
2022-11-13T19:41:00.052Z,39.63
2022-11-13T19:43:45.507Z,36.97
2022-11-13T19:46:32.189Z,33.88
2022-11-13T19:49:17.286Z,41.08
2022-11-13T19:52:02.858Z,40.40
2022-11-13T19:54:48.083Z,34.95
2022-11-13T19:57:33.388Z,35.47
2022-11-13T20:00:19.223Z,39.15
2022-11-13T20:03:07.574Z,41.53
2022-11-13T20:06:01.159Z,39.17
2022-11-13T20:08:46.721Z,42.60
2022-11-13T20:11:32.876Z,37.83
2022-11-13T20:14:18.179Z,38.95
2022-11-13T20:17:03.786Z,38.25
2022-11-13T20:19:49.815Z,45.22
2022-11-13T20:22:35.807Z,39.13
2022-11-13T20:25:22.030Z,37.35
2022-11-13T20:28:07.441Z,36.70
2022-11-13T20:31:03.180Z,36.90
2022-11-13T20:33:53.733Z,36.20
2022-11-13T20:36:39.178Z,38.25
2022-11-13T20:39:24.764Z,42.35
2022-11-13T20:42:10.134Z,36.90
2022-11-13T20:45:00.005Z,37.00
2022-11-13T20:47:46.755Z,44.33
2022-11-13T20:50:33.722Z,32.50
2022-11-13T20:53:19.365Z,32.25
2022-11-13T20:56:07.690Z,32.03
2022-11-13T20:58:53.723Z,36.75
2022-11-13T21:01:39.610Z,36.83
2022-11-13T21:04:25.167Z,40.85
2022-11-13T21:07:10.417Z,32.55
2022-11-13T21:09:55.982Z,34.10
2022-11-13T21:12:41.464Z,33.20
2022-11-13T21:15:27.583Z,38.13
2022-11-13T21:18:13.239Z,32.80
2022-11-13T21:21:10.782Z,32.15
2022-11-13T21:23:57.723Z,31.70
2022-11-13T21:26:43.564Z,33.70
2022-11-13T21:29:28.742Z,30.17
2022-11-13T21:32:14.077Z,33.70
2022-11-13T21:34:59.445Z,43.10
2022-11-13T21:37:44.975Z,40.55
2022-11-13T21:40:31.322Z,34.10
2022-11-13T21:43:17.127Z,44.38
2022-11-13T21:46:06.406Z,47.20
2022-11-13T21:49:10.206Z,49.03
2022-11-13T21:51:55.641Z,64.60
2022-11-13T21:54:41.630Z,66.25
2022-11-13T21:57:27.273Z,55.10
2022-11-13T22:00:13.400Z,54.25
2022-11-13T22:02:59.376Z,56.65
2022-11-13T22:05:45.638Z,57.83
2022-11-13T22:08:31.729Z,58.88
2022-11-13T22:11:17.163Z,56.78
2022-11-13T22:14:03.620Z,56.50
2022-11-13T22:16:49.202Z,63.58
2022-11-13T22:19:36.336Z,71.22
2022-11-13T22:22:22.049Z,66.70
2022-11-13T22:25:07.631Z,67.82
2022-11-13T22:27:53.509Z,69.40
2022-11-13T22:30:38.663Z,62.40
2022-11-13T22:33:27.875Z,54.92
2022-11-13T22:36:35.620Z,58.72
2022-11-13T22:39:21.356Z,53.83
2022-11-13T22:42:21.601Z,65.38
2022-11-13T22:45:22.727Z,52.30
2022-11-13T22:48:11.442Z,50.90
2022-11-13T22:51:04.491Z,42.75
2022-11-13T22:53:55.304Z,44.33
2022-11-13T22:56:41.752Z,41.20
2022-11-13T22:59:27.276Z,39.45
2022-11-13T23:02:12.652Z,39.47
2022-11-13T23:04:58.241Z,43.17
2022-11-13T23:07:43.513Z,39.60
2022-11-13T23:10:29.008Z,41.53
2022-11-13T23:13:14.232Z,42.25
2022-11-13T23:16:01.725Z,43.00
2022-11-13T23:18:47.574Z,46.65
2022-11-13T23:21:33.151Z,52.58
2022-11-13T23:24:18.747Z,65.13
2022-11-13T23:27:04.003Z,68.05
2022-11-13T23:29:50.453Z,73.20
2022-11-13T23:32:36.339Z,61.10
2022-11-13T23:35:21.897Z,63.50
2022-11-13T23:38:07.695Z,63.80
2022-11-13T23:40:58.189Z,72.50
2022-11-13T23:49:34.253Z,110.80
2022-11-13T23:52:19.677Z,115.10
2022-11-13T23:55:05.850Z,136.35
2022-11-13T23:57:59.535Z,142.55
